createdAt,value
2023-01-18T00:00:45.656Z,0.40
2023-01-18T00:04:21.959Z,0.40
2023-01-18T00:07:50.241Z,0.41
2023-01-18T00:11:20.527Z,0.39
2023-01-18T00:14:47.984Z,0.41
2023-01-18T00:18:18.185Z,0.45
2023-01-18T00:21:46.300Z,0.49
2023-01-18T00:25:17.657Z,0.52
2023-01-18T00:28:44.811Z,0.56
2023-01-18T00:32:16.487Z,0.60
2023-01-18T00:35:44.571Z,0.61
2023-01-18T00:39:13.607Z,0.60
2023-01-18T00:43:01.171Z,0.56
2023-01-18T00:46:35.742Z,0.49
2023-01-18T00:50:03.247Z,0.44
2023-01-18T00:53:31.182Z,0.40
2023-01-18T00:56:59.153Z,0.35
2023-01-18T01:00:27.740Z,0.30
2023-01-18T01:04:12.904Z,0.25
2023-01-18T01:07:43.543Z,0.19
2023-01-18T01:11:14.900Z,0.12
2023-01-18T01:15:05.899Z,0.06
2023-01-18T01:18:51.281Z,0.00
2023-01-18T01:22:36.423Z,-0.04
2023-01-18T01:26:08.307Z,-0.03
2023-01-18T01:29:39.628Z,-0.01
2023-01-18T01:33:07.702Z,0.03
2023-01-18T01:36:35.833Z,0.07
2023-01-18T01:40:04.256Z,0.15
2023-01-18T01:43:47.355Z,0.24
2023-01-18T01:47:26.748Z,0.33
2023-01-18T01:50:54.834Z,0.43
2023-01-18T01:54:29.553Z,0.48
2023-01-18T01:58:00.904Z,0.54
2023-01-18T02:01:29.630Z,0.57
2023-01-18T02:05:00.764Z,0.57
2023-01-18T02:08:29.995Z,0.52
2023-01-18T02:11:58.386Z,0.46
2023-01-18T02:15:33.112Z,0.41
2023-01-18T02:19:11.084Z,0.38
2023-01-18T02:23:05.435Z,0.36
2023-01-18T02:26:47.639Z,0.34
2023-01-18T02:30:32.285Z,0.28
2023-01-18T02:34:07.494Z,0.24
2023-01-18T02:37:45.770Z,0.21
2023-01-18T02:41:21.348Z,0.19
2023-01-18T02:45:06.864Z,0.18
2023-01-18T02:48:37.299Z,0.17
2023-01-18T02:52:06.817Z,0.18
2023-01-18T02:55:46.976Z,0.19
2023-01-18T02:59:18.006Z,0.22
2023-01-18T03:02:47.729Z,0.26
2023-01-18T03:06:15.357Z,0.32
2023-01-18T03:09:46.689Z,0.39
2023-01-18T03:13:23.665Z,0.47
2023-01-18T03:17:00.646Z,0.55
2023-01-18T03:20:32.700Z,0.61
2023-01-18T03:24:01.373Z,0.63
2023-01-18T03:27:46.177Z,0.66
2023-01-18T03:31:35.862Z,0.64
2023-01-18T03:35:09.165Z,0.60
2023-01-18T03:38:36.086Z,0.57
2023-01-18T03:42:08.100Z,0.52
2023-01-18T03:45:38.891Z,0.50
2023-01-18T03:49:06.237Z,0.45
2023-01-18T03:52:42.191Z,0.43
2023-01-18T03:56:15.512Z,0.41
2023-01-18T03:59:43.085Z,0.41
2023-01-18T04:03:11.122Z,0.39
2023-01-18T04:06:39.189Z,0.39
2023-01-18T04:10:06.585Z,0.41
2023-01-18T04:13:33.138Z,0.43
2023-01-18T04:17:02.243Z,0.47
2023-01-18T04:20:29.280Z,0.52
2023-01-18T04:23:56.255Z,0.60
2023-01-18T04:27:24.337Z,0.67
2023-01-18T04:30:55.088Z,0.74
2023-01-18T04:34:25.130Z,0.83
2023-01-18T04:37:56.111Z,0.88
2023-01-18T04:41:33.464Z,0.92
2023-01-18T04:45:01.520Z,0.92
2023-01-18T04:48:28.569Z,0.92
2023-01-18T04:51:56.086Z,0.92
2023-01-18T04:55:23.104Z,0.91
2023-01-18T04:58:51.280Z,0.89
2023-01-18T05:02:20.529Z,0.87
2023-01-18T05:05:48.342Z,0.85
2023-01-18T05:09:16.264Z,0.85
2023-01-18T05:12:43.166Z,0.84
2023-01-18T05:16:14.634Z,0.81
2023-01-18T05:19:41.800Z,0.78
2023-01-18T05:23:11.335Z,0.75
2023-01-18T05:26:38.736Z,0.77
2023-01-18T05:30:06.956Z,0.79
2023-01-18T05:33:34.128Z,0.84
2023-01-18T05:37:01.235Z,0.91
2023-01-18T05:40:28.249Z,0.98
2023-01-18T05:43:54.592Z,1.03
2023-01-18T05:47:21.175Z,1.07
2023-01-18T05:50:49.871Z,1.14
2023-01-18T05:54:17.231Z,1.20
2023-01-18T05:57:44.072Z,1.24
2023-01-18T06:01:10.775Z,1.28
2023-01-18T06:04:38.555Z,1.30
2023-01-18T06:08:06.879Z,1.29
2023-01-18T06:11:34.287Z,1.26
2023-01-18T06:15:01.086Z,1.22
2023-01-18T06:18:30.956Z,1.20
2023-01-18T06:21:59.298Z,1.18
2023-01-18T06:25:27.125Z,1.17
2023-01-18T06:28:54.148Z,1.16
2023-01-18T06:32:23.866Z,1.14
2023-01-18T06:35:53.595Z,1.12
2023-01-18T06:39:20.646Z,1.10
2023-01-18T06:42:50.967Z,1.10
2023-01-18T06:46:19.968Z,1.11
2023-01-18T06:49:46.924Z,1.15
2023-01-18T06:53:14.536Z,1.20
2023-01-18T06:56:41.571Z,1.28
2023-01-18T07:00:10.752Z,1.34
2023-01-18T07:03:38.934Z,1.40
2023-01-18T07:07:06.316Z,1.48
2023-01-18T07:10:33.065Z,1.56
2023-01-18T07:13:59.907Z,1.61
2023-01-18T07:17:28.279Z,1.63
2023-01-18T07:21:01.331Z,1.62
2023-01-18T07:24:28.036Z,1.59
2023-01-18T07:27:56.166Z,1.58
2023-01-18T07:31:24.114Z,1.57
2023-01-18T07:34:51.415Z,1.56
2023-01-18T07:38:18.863Z,1.52
2023-01-18T07:41:45.576Z,1.46
2023-01-18T07:45:14.253Z,1.42
2023-01-18T07:48:41.711Z,1.39
2023-01-18T07:52:08.853Z,1.37
2023-01-18T07:55:39.046Z,1.39
2023-01-18T07:59:06.168Z,1.43
2023-01-18T08:02:33.008Z,1.47
2023-01-18T08:06:02.000Z,1.52
2023-01-18T08:09:28.808Z,1.57
2023-01-18T08:12:57.217Z,1.62
2023-01-18T08:16:24.957Z,1.65
2023-01-18T08:19:52.114Z,1.69
2023-01-18T08:23:20.143Z,1.76
2023-01-18T08:26:47.479Z,1.83
2023-01-18T08:30:17.337Z,1.88
2023-01-18T08:33:50.874Z,1.92
2023-01-18T08:37:17.625Z,1.94
2023-01-18T08:40:45.308Z,1.90
2023-01-18T08:44:13.007Z,1.89
2023-01-18T08:47:41.429Z,1.87
2023-01-18T08:51:08.670Z,1.86
2023-01-18T08:54:37.120Z,1.85
2023-01-18T08:58:04.115Z,1.85
2023-01-18T09:01:31.737Z,1.87
2023-01-18T09:04:59.118Z,1.90
2023-01-18T09:08:26.852Z,1.96
2023-01-18T09:11:58.549Z,2.03
2023-01-18T09:15:27.305Z,2.08
2023-01-18T09:18:55.626Z,2.14
2023-01-18T09:22:22.468Z,2.20
2023-01-18T09:25:50.338Z,2.28
2023-01-18T09:29:17.105Z,2.38
2023-01-18T09:32:43.823Z,2.48
2023-01-18T09:36:13.375Z,2.59
2023-01-18T09:39:51.067Z,2.68
2023-01-18T09:43:28.693Z,2.74
2023-01-18T09:46:59.774Z,2.78
2023-01-18T09:50:29.273Z,2.78
2023-01-18T09:54:08.026Z,2.79
2023-01-18T09:57:47.263Z,2.79
2023-01-18T10:01:17.993Z,2.78
2023-01-18T10:04:51.292Z,2.74
2023-01-18T10:08:24.393Z,2.74
2023-01-18T10:11:59.912Z,2.74
2023-01-18T10:15:32.193Z,2.72
2023-01-18T10:19:02.961Z,2.71
2023-01-18T10:22:34.471Z,2.72
2023-01-18T10:26:08.180Z,2.72
2023-01-18T10:29:49.878Z,2.72
2023-01-18T10:33:23.308Z,2.74
2023-01-18T10:36:54.498Z,2.76
2023-01-18T10:40:26.856Z,2.80
2023-01-18T10:43:56.122Z,2.85
2023-01-18T10:47:28.859Z,2.87
2023-01-18T10:50:57.606Z,2.90
2023-01-18T10:54:30.554Z,2.91
2023-01-18T10:57:58.309Z,2.94
2023-01-18T11:01:29.278Z,2.92
2023-01-18T11:05:03.143Z,2.93
2023-01-18T11:08:32.086Z,2.92
2023-01-18T11:12:37.570Z,2.88
2023-01-18T11:16:15.807Z,2.86
2023-01-18T11:19:42.905Z,2.82
2023-01-18T11:23:23.589Z,2.83
2023-01-18T11:27:10.501Z,2.86
2023-01-18T11:30:49.386Z,2.88
2023-01-18T11:34:28.803Z,2.88
2023-01-18T11:38:03.057Z,2.92
2023-01-18T11:41:29.297Z,3.00
2023-01-18T11:45:17.358Z,3.08
2023-01-18T11:48:51.733Z,3.13
2023-01-18T11:52:30.982Z,3.07
2023-01-18T11:56:07.019Z,3.00
2023-01-18T11:59:40.317Z,2.96
2023-01-18T12:03:38.382Z,2.93
2023-01-18T12:07:27.500Z,2.87
2023-01-18T12:11:08.441Z,2.84
2023-01-18T12:14:50.569Z,2.80
2023-01-18T12:18:33.348Z,2.73
2023-01-18T12:22:22.635Z,2.67
2023-01-18T12:26:12.236Z,2.64
2023-01-18T12:30:05.374Z,2.65
2023-01-18T12:33:44.345Z,2.64
2023-01-18T12:37:31.685Z,2.64
2023-01-18T12:41:42.486Z,2.65
2023-01-18T12:45:24.622Z,2.68
2023-01-18T12:48:58.021Z,2.71
2023-01-18T12:52:25.848Z,2.72
2023-01-18T12:55:55.618Z,2.76
2023-01-18T12:59:25.725Z,2.80
2023-01-18T13:02:59.197Z,2.85
2023-01-18T13:06:27.201Z,2.91
2023-01-18T13:09:55.163Z,2.92
2023-01-18T13:13:31.776Z,2.91
2023-01-18T13:17:09.611Z,2.89
2023-01-18T13:20:49.044Z,2.87
2023-01-18T13:24:28.789Z,2.85
2023-01-18T13:28:14.424Z,2.80
2023-01-18T13:31:41.786Z,2.78
2023-01-18T13:35:21.291Z,2.75
2023-01-18T13:38:55.972Z,2.78
2023-01-18T13:42:38.393Z,2.85
2023-01-18T13:46:20.235Z,2.91
2023-01-18T13:49:49.914Z,2.98
2023-01-18T13:53:49.126Z,3.03
2023-01-18T13:57:20.171Z,3.07
2023-01-18T14:00:51.461Z,3.09
2023-01-18T14:04:32.287Z,3.10
2023-01-18T14:08:02.849Z,3.11
2023-01-18T14:11:34.622Z,3.13
2023-01-18T14:15:02.853Z,3.13
2023-01-18T14:18:32.467Z,3.12
2023-01-18T14:22:25.385Z,3.09
2023-01-18T14:26:01.689Z,3.08
2023-01-18T14:29:40.142Z,3.07
2023-01-18T14:33:18.144Z,3.05
2023-01-18T14:36:46.622Z,2.99
2023-01-18T14:40:26.834Z,2.98
2023-01-18T14:43:58.227Z,2.97
2023-01-18T14:47:27.033Z,2.93
2023-01-18T14:51:07.229Z,2.96
2023-01-18T14:54:37.554Z,2.96
2023-01-18T14:58:14.834Z,2.98
2023-01-18T15:01:45.050Z,3.02
2023-01-18T15:05:17.198Z,3.09
2023-01-18T15:08:46.826Z,3.12
2023-01-18T15:12:23.118Z,3.13
2023-01-18T15:16:01.103Z,3.13
2023-01-18T15:19:39.823Z,3.09
2023-01-18T15:23:08.564Z,3.06
2023-01-18T15:26:54.808Z,3.04
2023-01-18T15:30:40.467Z,3.01
2023-01-18T15:34:19.536Z,2.98
2023-01-18T15:37:59.563Z,2.94
2023-01-18T15:41:36.494Z,2.88
2023-01-18T15:45:28.436Z,2.88
2023-01-18T15:49:03.669Z,2.91
2023-01-18T15:52:49.805Z,2.96
2023-01-18T15:56:38.001Z,3.00
2023-01-18T16:00:28.108Z,3.05
2023-01-18T16:04:08.013Z,3.09
2023-01-18T16:07:53.117Z,3.17
2023-01-18T16:11:46.483Z,3.17
2023-01-18T16:15:34.596Z,3.14
2023-01-18T16:19:18.943Z,3.11
2023-01-18T16:23:04.944Z,3.03
2023-01-18T16:26:38.555Z,3.00
2023-01-18T16:30:45.607Z,2.96
2023-01-18T16:34:28.270Z,2.87
2023-01-18T16:37:58.215Z,2.83
2023-01-18T16:41:25.851Z,2.84
2023-01-18T16:44:54.546Z,2.82
2023-01-18T16:48:33.803Z,2.82
2023-01-18T16:52:00.904Z,2.81
2023-01-18T16:55:29.481Z,2.80
2023-01-18T16:58:56.437Z,2.81
2023-01-18T17:02:24.951Z,2.82
2023-01-18T17:05:53.660Z,2.88
2023-01-18T17:09:26.473Z,2.93
2023-01-18T17:12:55.666Z,2.98
2023-01-18T17:16:22.946Z,3.03
2023-01-18T17:19:51.810Z,3.09
2023-01-18T17:23:19.474Z,3.13
2023-01-18T17:26:46.867Z,3.15
2023-01-18T17:30:19.336Z,3.16
2023-01-18T17:33:49.258Z,3.15
2023-01-18T17:37:17.351Z,3.12
2023-01-18T17:40:46.563Z,3.09
2023-01-18T17:44:24.111Z,3.06
2023-01-18T17:47:55.228Z,3.02
2023-01-18T17:51:25.566Z,2.95
2023-01-18T17:54:52.731Z,2.90
2023-01-18T17:58:25.972Z,2.85
2023-01-18T18:01:55.194Z,2.84
2023-01-18T18:05:24.646Z,2.84
2023-01-18T18:08:53.863Z,2.86
2023-01-18T18:12:25.079Z,2.88
2023-01-18T18:15:58.684Z,2.91
2023-01-18T18:19:29.505Z,2.92
2023-01-18T18:23:02.617Z,2.96
2023-01-18T18:26:32.956Z,2.96
2023-01-18T18:30:04.026Z,2.98
2023-01-18T18:33:36.807Z,2.99
2023-01-18T18:37:06.034Z,2.96
2023-01-18T18:40:36.996Z,2.91
2023-01-18T18:44:04.693Z,2.85
2023-01-18T18:47:33.800Z,2.80
2023-01-18T18:51:02.182Z,2.78
2023-01-18T18:54:29.539Z,2.71
2023-01-18T18:57:57.990Z,2.64
2023-01-18T19:01:29.744Z,2.55
2023-01-18T19:05:01.796Z,2.51
2023-01-18T19:08:34.089Z,2.48
2023-01-18T19:12:06.908Z,2.49
2023-01-18T19:15:36.744Z,2.49
2023-01-18T19:19:07.841Z,2.53
2023-01-18T19:22:43.007Z,2.58
2023-01-18T19:26:10.661Z,2.64
2023-01-18T19:29:39.641Z,2.71
2023-01-18T19:33:15.695Z,2.78
2023-01-18T19:36:42.647Z,2.86
2023-01-18T19:40:14.481Z,2.92
2023-01-18T19:43:43.018Z,2.93
2023-01-18T19:47:10.600Z,2.94
2023-01-18T19:50:40.297Z,2.92
2023-01-18T19:54:28.568Z,2.88
2023-01-18T19:58:01.566Z,2.84
2023-01-18T20:01:36.836Z,2.81
2023-01-18T20:05:04.672Z,2.78
2023-01-18T20:08:34.502Z,2.76
2023-01-18T20:12:03.447Z,2.73
2023-01-18T20:15:31.683Z,2.69
2023-01-18T20:18:59.115Z,2.65
2023-01-18T20:22:26.360Z,2.63
2023-01-18T20:25:55.923Z,2.61
2023-01-18T20:29:22.924Z,2.58
2023-01-18T20:32:50.717Z,2.60
2023-01-18T20:36:18.501Z,2.64
2023-01-18T20:39:56.619Z,2.70
2023-01-18T20:43:23.663Z,2.77
2023-01-18T20:46:55.359Z,2.83
2023-01-18T20:50:24.603Z,2.86
2023-01-18T20:53:52.003Z,2.88
2023-01-18T20:57:19.198Z,2.89
2023-01-18T21:00:46.738Z,2.91
2023-01-18T21:04:14.120Z,2.90
2023-01-18T21:07:42.495Z,2.88
2023-01-18T21:11:17.514Z,2.86
2023-01-18T21:14:45.397Z,2.83
2023-01-18T21:18:17.182Z,2.79
2023-01-18T21:21:50.227Z,2.74
2023-01-18T21:25:21.832Z,2.69
2023-01-18T21:28:49.868Z,2.66
2023-01-18T21:32:23.219Z,2.62
2023-01-18T21:35:53.205Z,2.57
2023-01-18T21:39:25.654Z,2.52
2023-01-18T21:43:13.931Z,2.49
2023-01-18T21:46:48.309Z,2.46
2023-01-18T21:50:42.797Z,2.45
2023-01-18T21:54:23.709Z,2.48
2023-01-18T21:58:09.066Z,2.52
2023-01-18T22:01:43.281Z,2.60
2023-01-18T22:05:13.146Z,2.68
2023-01-18T22:08:41.701Z,2.73
2023-01-18T22:12:14.496Z,2.79
2023-01-18T22:15:43.706Z,2.81
2023-01-18T22:19:13.625Z,2.77
2023-01-18T22:22:41.424Z,2.75
2023-01-18T22:26:08.583Z,2.73
2023-01-18T22:29:39.864Z,2.69
2023-01-18T22:33:11.460Z,2.66
2023-01-18T22:36:40.670Z,2.61
2023-01-18T22:40:11.282Z,2.57
2023-01-18T22:43:42.582Z,2.52
2023-01-18T22:47:09.471Z,2.49
2023-01-18T22:50:36.904Z,2.45
2023-01-18T22:54:04.449Z,2.42
2023-01-18T22:57:35.520Z,2.41
2023-01-18T23:01:05.566Z,2.43
2023-01-18T23:04:34.593Z,2.45
2023-01-18T23:08:06.044Z,2.50
2023-01-18T23:11:34.767Z,2.54
2023-01-18T23:15:19.226Z,2.61
2023-01-18T23:18:48.941Z,2.69
2023-01-18T23:22:16.007Z,2.73
2023-01-18T23:25:47.306Z,2.75
2023-01-18T23:29:22.476Z,2.74
2023-01-18T23:32:53.054Z,2.71
2023-01-18T23:36:20.531Z,2.66
2023-01-18T23:40:06.356Z,2.63
2023-01-18T23:43:51.231Z,2.55
2023-01-18T23:47:36.210Z,2.48
2023-01-18T23:51:21.603Z,2.36
2023-01-18T23:54:48.949Z,2.25
2023-01-18T23:58:16.229Z,2.18
